Kezdőlap
METAR-TAF:

METAR-TAF

Repülőterek :

Oslo, Norvégia

földrajzi szélesség: 60-12N, földrajzi hosszúság: 011-05E, magasság: 208 m

Jelenlegi meteorológiai megfigyelések

A jelentés 20 perccel ezelõtt készült, 00:20 UTC
Délnyugati szél 6 kt
Hőmérséklet 6°C
Páratartalom 70%
Légköri nyomás 997 hPa
Látótávolság 10 km, vagy több
felhőtlen 1500 m magasságban, és nincs gomolyfelhõ

METAR: ENGM 240020Z 23006KT CAVOK 06/01 Q0997

Idő: 02:40 (00:40 UTC)

Előrejelzés

Az előrejelzés 24-én 00 óra UTC és 24-én 24 óra UTC között érvényes
Délnyugati szél 8 kt
Látótávolság 10 km, vagy több
Kevés felhő 2000 lábon
Szakadozott felhőzet 3000 lábon

TAF: ENGM 2400/2424 22008KT 9999 FEW020 BKN030

Meteorológiai megfigyelések és előrejelzések több, mint 4000 repülőtéren (METAR és TAF jelentéseket).

A térképen piros és sárga pontok jelzik az elérhető meteorológiai állomásokat.

Mozgassa az egeret a pont fölött, hogy megjelenjen az állomás neve.

Azután kattintson az időjárási megfigyelések és előrejelzések megtekintéséhez.

A térkép megváltoztatása: kattintson a fekete keresztel jelölt zöld gombra ráközelítéshez, a vonallal jelölt zöld gombra távolításhoz, vagy a zöld nyilakra a szomszédos térképek eléréséhez.


METAR-TAF: